Flight Track Log - Related Links

Times and Time Zones

All times are in EDT time to prevent confusion due to time zone crossing. See the N80GD flight status page for this flight to view local times or setup timezone preferences in your user account.

Time Position Orientation Groundspeed Altitude Reporting Facility
EDT Latitude Longitude Course Direction KTS MPH feet Rate Location/Type
Fri 05:43:10 PM 42.2906 -85.2100 59° Northeast 121 139 3,400  Level Chicago Center
Fri 05:44:13 PM 42.3117 -85.1836 43° Northeast 108 124 3,900 576 Climbing Chicago Center
Fri 05:45:15 PM 42.3289 -85.1458 58° Northeast 113 130 4,600 581 Climbing Chicago Center
Fri 05:46:00 PM 42.3980 -85.0454 59° Northeast  Level Estimated
Fri 05:46:17 PM 42.3456 -85.1094 58° Northeast 114 131 5,100  Level Chicago Center
Fri 05:47:00 PM 42.4163 -85.0043 59° Northeast  Level Estimated
Fri 05:47:19 PM 42.3636 -85.0711 57° Northeast 119 137 5,400  Level Chicago Center
Fri 05:48:00 PM 42.4345 -84.9633 59° Northeast  Level Estimated
Fri 05:48:21 PM 42.3842 -85.0242 59° Northeast 136 157 5,400  Level Chicago Center
Fri 05:49:23 PM 42.4103 -84.9692 57° Northeast 143 165 5,400  Level Chicago Center
Fri 05:50:25 PM 42.4322 -84.9228 57° Northeast 146 168 5,400  Level Chicago Center
Fri 05:51:27 PM 42.4536 -84.8739 59° Northeast 149 171 5,400  Level Chicago Center
Fri 05:52:29 PM 42.4747 -84.8300 57° Northeast 149 171 5,400  Level Chicago Center
Fri 05:53:31 PM 42.4964 -84.7806 59° Northeast 147 169 5,400  Level Chicago Center
Fri 05:54:33 PM 42.5228 -84.7256 57° Northeast 145 167 5,400  Level Chicago Center
Fri 05:55:35 PM 42.5444 -84.6775 59° Northeast 148 170 5,400  Level Chicago Center
Fri 05:56:37 PM 42.5656 -84.6292 59° Northeast 149 171 5,400  Level Chicago Center
Fri 05:57:39 PM 42.5881 -84.5822 57° Northeast 149 171 5,400  Level Chicago Center
Fri 05:58:41 PM 42.6092 -84.5361 58° Northeast 145 167 5,400  Level Chicago Center
Fri 05:59:43 PM 42.6306 -84.4889 58° Northeast 146 168 5,400  Level Chicago Center
Fri 06:00:45 PM 42.6569 -84.4328 57° Northeast 148 170 5,400  Level Chicago Center
Fri 06:01:47 PM 42.6778 -84.3839 60° Northeast 149 171 5,400  Level Chicago Center

Login

Don't have an account? Register now (free) for customized features, flight alerts, and more!